Shen Hang 935 — BXGY — position and weather

sailwx.info

Track history (hours):
 
Tides and Currents Weather Stations Pressure Air Temp Water Temp Dewpoint Dewpoint Depression Visibility Wind Speed Wind Dir Waves Ship Positions

Shen Hang 935

Last reported at 2014-Aug-21 08:33 UTC. Time now 2014-Aug-22 13:42 UTC.
Position N 23°03' E 113°30'.

Length 49 m; draft 2.6 m.

Type: Ship. MMSI: 412466550.

Date/timePositionNaut miles runAvg speedWind from/ knotsBaromVisibWave heightAir tempDewpointWater temp
2014-Aug-21 08:33N 23°03' E 113°30'4 4.1
2014-Aug-21 07:33N 23°06' E 113°27'0 0.0
2014-Aug-21 06:33N 23°06' E 113°27'0 0.1
2014-Aug-21 05:33N 23°06' E 113°27'0 0.1
2014-Aug-21 04:33N 23°06' E 113°27'0 0.1
2014-Aug-21 03:33N 23°06' E 113°27'0 0.0
2014-Aug-21 02:34N 23°06' E 113°27'0 0.0
2014-Aug-21 01:33N 23°06' E 113°27'0 0.0
2014-Aug-21 00:34N 23°06' E 113°27'0 0.0
2014-Aug-20 11:33N 23°05' E 113°27'0 0.1
2014-Aug-20 08:33N 23°05' E 113°27'0 0.0
2014-Aug-20 07:33N 23°05' E 113°27'0 0.0
2014-Aug-20 04:28N 23°05' E 113°27'0 0.0
2014-Aug-20 03:33N 23°05' E 113°27'0 0.0
2014-Aug-20 02:34N 23°05' E 113°27'0 0.0
2014-Aug-20 01:33N 23°05' E 113°27'0 0.0
2014-Aug-19 18:19N 23°05' E 113°27'0 0.0
2014-Aug-19 17:32N 23°05' E 113°27'0 0.0
2014-Aug-19 16:33N 23°05' E 113°27'0 0.0
2014-Aug-19 15:33N 23°05' E 113°27'0 0.0
2014-Aug-19 14:33N 23°05' E 113°27'0 0.0
2014-Aug-19 10:33N 23°05' E 113°27'2 1.8
2014-Aug-19 09:33N 23°05' E 113°28'3 0.1
2014-Aug-18 07:33N 23°03' E 113°31'0 0.0
2014-Aug-18 06:33N 23°03' E 113°31'0 0.1
2014-Aug-18 05:13N 23°03' E 113°31'0 0.0
2014-Aug-18 03:24N 23°03' E 113°31'0 0.0
2014-Aug-18 02:16N 23°03' E 113°31'0 0.0
2014-Aug-18 01:32N 23°03' E 113°31'5 5.2
2014-Aug-18 00:33N 22°58' E 113°32'  
2014-Aug-14 12:10N 22°25' E 113°54'22 0.8
2014-Aug-13 08:33N 22°34' E 114°15'0 0.0
2014-Aug-13 07:33N 22°34' E 114°15'  
Track history (hours):
 
Tides and Currents Weather Stations Pressure Air Temp Water Temp Dewpoint Dewpoint Depression Visibility Wind Speed Wind Dir Waves Ship Positions

Shen Hang 935

Last reported at 2014-Aug-21 08:33 UTC. Time now 2014-Aug-22 13:42 UTC.
Position N 23°03' E 113°30'.

Length 49 m; draft 2.6 m.

Type: Ship. MMSI: 412466550.

Date/timePositionNaut miles runAvg speedWind from/ knotsBaromVisibWave heightAir tempDewpointWater temp
2014-Aug-21 08:33N 23°03' E 113°30'4 4.1
2014-Aug-21 07:33N 23°06' E 113°27'0 0.0
2014-Aug-21 06:33N 23°06' E 113°27'0 0.1
2014-Aug-21 05:33N 23°06' E 113°27'0 0.1
2014-Aug-21 04:33N 23°06' E 113°27'0 0.1
2014-Aug-21 03:33N 23°06' E 113°27'0 0.0
2014-Aug-21 02:34N 23°06' E 113°27'0 0.0
2014-Aug-21 01:33N 23°06' E 113°27'0 0.0
2014-Aug-21 00:34N 23°06' E 113°27'0 0.0
2014-Aug-20 11:33N 23°05' E 113°27'0 0.1
2014-Aug-20 08:33N 23°05' E 113°27'0 0.0
2014-Aug-20 07:33N 23°05' E 113°27'0 0.0
2014-Aug-20 04:28N 23°05' E 113°27'0 0.0
2014-Aug-20 03:33N 23°05' E 113°27'0 0.0
2014-Aug-20 02:34N 23°05' E 113°27'0 0.0
2014-Aug-20 01:33N 23°05' E 113°27'0 0.0
2014-Aug-19 18:19N 23°05' E 113°27'0 0.0
2014-Aug-19 17:32N 23°05' E 113°27'0 0.0
2014-Aug-19 16:33N 23°05' E 113°27'0 0.0
2014-Aug-19 15:33N 23°05' E 113°27'0 0.0
2014-Aug-19 14:33N 23°05' E 113°27'0 0.0
2014-Aug-19 10:33N 23°05' E 113°27'2 1.8
2014-Aug-19 09:33N 23°05' E 113°28'3 0.1
2014-Aug-18 07:33N 23°03' E 113°31'0 0.0
2014-Aug-18 06:33N 23°03' E 113°31'0 0.1
2014-Aug-18 05:13N 23°03' E 113°31'0 0.0
2014-Aug-18 03:24N 23°03' E 113°31'0 0.0
2014-Aug-18 02:16N 23°03' E 113°31'0 0.0
2014-Aug-18 01:32N 23°03' E 113°31'5 5.2
2014-Aug-18 00:33N 22°58' E 113°32'  
2014-Aug-14 12:10N 22°25' E 113°54'22 0.8
2014-Aug-13 08:33N 22°34' E 114°15'0 0.0
2014-Aug-13 07:33N 22°34' E 114°15'  

Dump ship's entire track history